Time;durP1;ratioP1;P1;durP2;ratioP2;P2;SDS_P1;SDS_P2;PMS_P1;PMS_P2;Temp;Humidity;BMP_temperature;BMP_pressure;BME280_temperature;BME280_humidity;BME280_pressure;Samples;Min_cycle;Max_cycle;Signal;HPM_P1;HPM_P2
2023/07/02 10:33:23;;;;;;;16.60;9.23;;;;;;;;;;12988670;22;20015;-92
2023/07/02 10:38:27;;;;;;;13.43;9.02;;;;;;;;;;12906787;22;20035;-83
2023/07/02 10:43:32;;;;;;;14.82;9.52;;;;;;;;;;12965312;22;20023;-84
2023/07/02 10:48:37;;;;;;;19.40;10.18;;;;;;;;;;12983622;22;20103;-85
2023/07/02 10:53:40;;;;;;;16.77;10.60;;;;;;;;;;12966180;22;20569;-84
2023/07/02 10:58:43;;;;;;;19.25;10.85;;;;;;;;;;12967333;22;20015;-83
2023/07/02 11:03:57;;;;;;;18.98;11.02;;;;;;;;;;12938803;22;20035;-83
2023/07/02 11:09:01;;;;;;;17.05;10.43;;;;;;;;;;12938542;22;20402;-84
2023/07/02 11:14:04;;;;;;;15.80;9.52;;;;;;;;;;12963913;22;20027;-84
2023/07/02 11:19:10;;;;;;;19.08;10.18;;;;;;;;;;12966553;22;20015;-85
2023/07/02 11:24:13;;;;;;;16.23;10.07;;;;;;;;;;12966211;22;20034;-83
2023/07/02 11:29:19;;;;;;;14.85;9.48;;;;;;;;;;12939225;22;20023;-83
2023/07/02 11:34:24;;;;;;;19.23;10.55;;;;;;;;;;12937283;22;20028;-84
2023/07/02 11:39:28;;;;;;;19.35;10.70;;;;;;;;;;12968071;22;20020;-84
2023/07/02 11:44:31;;;;;;;15.65;9.90;;;;;;;;;;12938037;22;20027;-83
2023/07/02 11:49:36;;;;;;;17.45;11.00;;;;;;;;;;12979955;22;20023;-83
2023/07/02 11:54:39;;;;;;;20.05;11.68;;;;;;;;;;12966968;22;20073;-83
2023/07/02 11:59:43;;;;;;;18.50;10.15;;;;;;;;;;12939673;22;20015;-84
2023/07/02 12:04:48;;;;;;;16.45;10.20;;;;;;;;;;12938171;22;20074;-83
2023/07/02 12:09:51;;;;;;;17.73;10.60;;;;;;;;;;12977607;22;20499;-83
2023/07/02 12:14:55;;;;;;;17.63;11.02;;;;;;;;;;12978907;22;20024;-83
2023/07/02 12:19:59;;;;;;;18.60;10.25;;;;;;;;;;12938672;22;20078;-86
2023/07/02 12:25:03;;;;;;;18.60;9.82;;;;;;;;;;12938804;22;20047;-84
2023/07/02 12:30:08;;;;;;;16.23;8.98;;;;;;;;;;12942066;22;20043;-85
2023/07/02 12:35:13;;;;;;;14.43;8.87;;;;;;;;;;12943503;22;20023;-85
2023/07/02 12:40:17;;;;;;;19.60;11.27;;;;;;;;;;12943872;22;20073;-86
2023/07/02 12:45:23;;;;;;;17.30;11.20;;;;;;;;;;12966645;22;20485;-85
2023/07/02 12:50:27;;;;;;;12.52;7.82;;;;;;;;;;12943174;22;20023;-84
2023/07/02 12:55:31;;;;;;;20.73;11.63;;;;;;;;;;12955827;22;20024;-84
2023/07/02 13:00:34;;;;;;;15.75;9.38;;;;;;;;;;12968236;22;20020;-85
2023/07/02 13:05:39;;;;;;;19.35;10.35;;;;;;;;;;12900233;22;20120;-85
2023/07/02 13:10:45;;;;;;;19.92;11.38;;;;;;;;;;12969702;22;20466;-84
2023/07/02 13:15:49;;;;;;;20.42;11.48;;;;;;;;;;12941748;22;20410;-83
2023/07/02 13:20:53;;;;;;;19.60;10.80;;;;;;;;;;12969227;22;20019;-85
2023/07/02 13:25:57;;;;;;;21.88;11.90;;;;;;;;;;12968102;22;20085;-86
2023/07/02 13:31:00;;;;;;;18.65;10.73;;;;;;;;;;12942610;22;20085;-84
2023/07/02 13:36:05;;;;;;;19.52;10.00;;;;;;;;;;12940354;22;20038;-84
2023/07/02 13:41:09;;;;;;;13.57;8.80;;;;;;;;;;12968548;22;20074;-84
2023/07/02 13:46:12;;;;;;;19.15;11.45;;;;;;;;;;12968616;22;20026;-85
2023/07/02 13:51:17;;;;;;;15.52;9.57;;;;;;;;;;12941618;22;20023;-84
2023/07/02 13:56:20;;;;;;;15.65;9.50;;;;;;;;;;12940341;22;20024;-83
2023/07/02 14:01:25;;;;;;;20.15;11.15;;;;;;;;;;12939182;22;20047;-83
2023/07/02 14:06:29;;;;;;;20.53;11.83;;;;;;;;;;12936696;22;20616;-84
2023/07/02 14:11:32;;;;;;;17.40;10.32;;;;;;;;;;12970304;22;20047;-84
2023/07/02 14:16:37;;;;;;;20.30;12.07;;;;;;;;;;12938917;22;20023;-83
2023/07/02 14:21:40;;;;;;;18.90;10.25;;;;;;;;;;12968547;22;20023;-84
2023/07/02 14:26:44;;;;;;;20.73;10.48;;;;;;;;;;12972892;22;20024;-84
2023/07/02 14:31:49;;;;;;;19.40;11.55;;;;;;;;;;12942748;22;20459;-83
2023/07/02 14:36:52;;;;;;;18.20;10.55;;;;;;;;;;12942632;22;20023;-83
2023/07/02 14:41:56;;;;;;;17.35;9.82;;;;;;;;;;12945283;22;20019;-84
2023/07/02 14:47:00;;;;;;;17.60;10.40;;;;;;;;;;12941106;22;20406;-83
2023/07/02 14:52:10;;;;;;;16.50;10.80;;;;;;;;;;12966068;22;20028;-85
2023/07/02 14:57:14;;;;;;;16.30;10.07;;;;;;;;;;12956948;22;20057;-87
2023/07/02 15:02:19;;;;;;;16.17;9.32;;;;;;;;;;12961156;22;20022;-84
2023/07/02 15:07:23;;;;;;;18.65;12.25;;;;;;;;;;12942413;22;20077;-83
2023/07/02 15:12:26;;;;;;;16.80;10.18;;;;;;;;;;12949151;22;20099;-83
2023/07/02 15:17:32;;;;;;;15.48;9.25;;;;;;;;;;12962717;22;20406;-86
2023/07/02 15:22:35;;;;;;;14.45;9.43;;;;;;;;;;12938342;22;20016;-83
2023/07/02 15:27:39;;;;;;;12.07;7.88;;;;;;;;;;12961972;22;20042;-85
2023/07/02 15:32:44;;;;;;;17.15;10.15;;;;;;;;;;12964582;22;20016;-84
2023/07/02 15:37:47;;;;;;;21.60;10.67;;;;;;;;;;12935814;22;20089;-84
2023/07/02 15:42:52;;;;;;;19.60;10.50;;;;;;;;;;12937249;22;20050;-82
2023/07/02 15:47:57;;;;;;;16.98;10.18;;;;;;;;;;12929437;22;20028;-83
2023/07/02 15:53:02;;;;;;;18.33;10.27;;;;;;;;;;12936745;22;20324;-83
2023/07/02 15:58:06;;;;;;;18.03;10.43;;;;;;;;;;12932676;22;20091;-85
2023/07/02 16:03:11;;;;;;;16.13;10.10;;;;;;;;;;12939087;22;20020;-84
2023/07/02 16:08:14;;;;;;;16.88;9.65;;;;;;;;;;12963248;22;20030;-85
2023/07/02 16:13:18;;;;;;;12.55;7.57;;;;;;;;;;12940109;22;20019;-85
2023/07/02 16:18:22;;;;;;;12.60;8.38;;;;;;;;;;12939025;22;20016;-85
2023/07/02 16:23:28;;;;;;;14.52;9.15;;;;;;;;;;12987972;22;20618;-85
2023/07/02 16:28:33;;;;;;;19.02;11.10;;;;;;;;;;12984606;22;20031;-86
2023/07/02 16:33:38;;;;;;;16.73;8.80;;;;;;;;;;12943610;22;20019;-85
2023/07/02 16:38:41;;;;;;;17.00;9.88;;;;;;;;;;12966430;22;20532;-85
2023/07/02 16:43:45;;;;;;;19.15;9.50;;;;;;;;;;12939969;22;20024;-85
2023/07/02 16:48:49;;;;;;;15.30;9.50;;;;;;;;;;12984707;22;20340;-84
2023/07/02 16:53:53;;;;;;;13.32;8.10;;;;;;;;;;12982563;22;20020;-86
2023/07/02 16:58:57;;;;;;;14.05;7.80;;;;;;;;;;12968983;22;20020;-85
2023/07/02 17:04:02;;;;;;;17.13;8.88;;;;;;;;;;12936957;22;20040;-84
2023/07/02 17:09:21;;;;;;;15.65;9.45;;;;;;;;;;12969180;22;20054;-84
2023/07/02 17:14:28;;;;;;;15.18;9.13;;;;;;;;;;12979411;22;20279;-84
2023/07/02 17:19:37;;;;;;;18.80;9.25;;;;;;;;;;12943361;22;20027;-84
2023/07/02 17:24:41;;;;;;;16.10;9.50;;;;;;;;;;12930538;22;20031;-84
2023/07/02 17:29:50;;;;;;;18.65;8.85;;;;;;;;;;12971011;22;20028;-85
2023/07/02 17:34:55;;;;;;;14.43;8.68;;;;;;;;;;12961927;22;20075;-83
2023/07/02 17:39:58;;;;;;;14.07;8.83;;;;;;;;;;12938348;22;20027;-84
2023/07/02 17:45:02;;;;;;;15.13;8.65;;;;;;;;;;12933574;22;20020;-84
2023/07/02 17:50:17;;;;;;;12.18;7.40;;;;;;;;;;12980674;22;20027;-84
2023/07/02 17:55:21;;;;;;;16.23;9.50;;;;;;;;;;12975277;22;20027;-86
2023/07/02 18:00:24;;;;;;;15.10;8.95;;;;;;;;;;12938881;22;20020;-84
2023/07/02 18:05:30;;;;;;;12.45;7.15;;;;;;;;;;12962836;22;20370;-85
2023/07/02 18:10:33;;;;;;;12.32;7.07;;;;;;;;;;12965794;22;20066;-85
2023/07/02 18:15:37;;;;;;;15.40;7.82;;;;;;;;;;12962358;22;20049;-84
2023/07/02 18:20:42;;;;;;;15.32;8.73;;;;;;;;;;12966115;22;20020;-84
2023/07/02 18:25:45;;;;;;;19.13;9.67;;;;;;;;;;12931643;22;20032;-85
2023/07/02 18:30:50;;;;;;;14.95;8.80;;;;;;;;;;12966296;22;20024;-85
2023/07/02 18:35:55;;;;;;;14.50;8.38;;;;;;;;;;12965979;22;20050;-85
2023/07/02 18:41:03;;;;;;;10.50;6.28;;;;;;;;;;12937586;22;20073;-84
2023/07/02 18:46:07;;;;;;;11.52;6.43;;;;;;;;;;12930319;22;20019;-84
2023/07/02 18:51:11;;;;;;;13.95;8.38;;;;;;;;;;12939250;22;20662;-85
2023/07/02 18:56:15;;;;;;;14.77;7.82;;;;;;;;;;12934350;22;20028;-84
2023/07/02 19:01:18;;;;;;;13.18;7.65;;;;;;;;;;12938524;22;20020;-84
2023/07/02 19:06:23;;;;;;;13.85;7.43;;;;;;;;;;12966055;22;20026;-84
2023/07/02 19:11:28;;;;;;;16.07;8.23;;;;;;;;;;12938810;22;20032;-84
2023/07/02 19:16:31;;;;;;;16.13;8.50;;;;;;;;;;12935096;22;20152;-84
2023/07/02 19:21:36;;;;;;;17.10;7.93;;;;;;;;;;12971755;22;20027;-85
2023/07/02 19:26:40;;;;;;;13.70;7.57;;;;;;;;;;12935066;22;20015;-85
2023/07/02 19:31:45;;;;;;;19.48;8.27;;;;;;;;;;12940061;22;20020;-84
2023/07/02 19:36:50;;;;;;;15.23;7.20;;;;;;;;;;12937313;22;20024;-86
2023/07/02 19:41:53;;;;;;;15.97;7.03;;;;;;;;;;12945685;22;20024;-86
2023/07/02 19:46:57;;;;;;;13.95;7.35;;;;;;;;;;12972289;22;20031;-85
2023/07/02 19:52:01;;;;;;;10.02;5.93;;;;;;;;;;12975096;22;20015;-85
2023/07/02 19:57:05;;;;;;;10.98;5.28;;;;;;;;;;12974201;22;20724;-85
2023/07/02 20:02:10;;;;;;;10.95;5.50;;;;;;;;;;12943729;22;20020;-86
2023/07/02 20:07:16;;;;;;;11.15;6.43;;;;;;;;;;12971006;22;20020;-84
2023/07/02 20:12:19;;;;;;;15.05;7.28;;;;;;;;;;12943475;22;20016;-85
2023/07/02 20:17:23;;;;;;;9.05;5.45;;;;;;;;;;12946223;22;20043;-84
2023/07/02 20:22:28;;;;;;;12.60;6.45;;;;;;;;;;12973349;22;20020;-85
2023/07/02 20:27:31;;;;;;;11.05;5.25;;;;;;;;;;12943934;22;20350;-86
2023/07/02 20:32:35;;;;;;;8.95;4.30;;;;;;;;;;12944204;22;20023;-86
2023/07/02 20:37:39;;;;;;;6.68;3.67;;;;;;;;;;12972707;22;20027;-86
2023/07/02 20:42:43;;;;;;;7.25;4.55;;;;;;;;;;12945573;22;20050;-85
2023/07/02 20:47:47;;;;;;;12.77;4.72;;;;;;;;;;12943917;22;20077;-85
2023/07/02 20:52:51;;;;;;;12.27;6.00;;;;;;;;;;12940549;22;20447;-85
2023/07/02 20:57:55;;;;;;;8.95;4.85;;;;;;;;;;12973942;22;20074;-85
2023/07/02 21:02:58;;;;;;;7.78;4.60;;;;;;;;;;12939733;22;20032;-85
2023/07/02 21:08:03;;;;;;;15.05;6.10;;;;;;;;;;12969740;22;20062;-84
2023/07/02 21:13:06;;;;;;;8.35;4.47;;;;;;;;;;12938919;22;20019;-85
2023/07/02 21:18:09;;;;;;;7.07;3.88;;;;;;;;;;12944759;22;20020;-85
2023/07/02 21:23:14;;;;;;;7.60;3.97;;;;;;;;;;12939157;22;20058;-87
2023/07/02 21:28:20;;;;;;;8.52;4.60;;;;;;;;;;12992079;22;20039;-85
2023/07/02 21:33:25;;;;;;;6.80;4.20;;;;;;;;;;12940919;22;20066;-84
2023/07/02 21:38:29;;;;;;;8.95;3.78;;;;;;;;;;12945369;22;20043;-85
2023/07/02 21:43:33;;;;;;;7.70;4.18;;;;;;;;;;12942742;22;20024;-85
2023/07/02 21:48:37;;;;;;;10.43;5.15;;;;;;;;;;12946681;22;20406;-84
2023/07/02 21:53:41;;;;;;;9.60;5.18;;;;;;;;;;12940607;22;20027;-86
2023/07/02 21:58:47;;;;;;;9.35;5.15;;;;;;;;;;12945814;22;20023;-85
2023/07/02 22:03:51;;;;;;;6.85;3.75;;;;;;;;;;12984137;22;20019;-85
2023/07/02 22:08:56;;;;;;;9.00;3.50;;;;;;;;;;12941546;22;20077;-86
2023/07/02 22:13:59;;;;;;;8.95;4.22;;;;;;;;;;12966707;22;20043;-86
2023/07/02 22:19:03;;;;;;;5.97;3.50;;;;;;;;;;12939211;22;20074;-84
2023/07/02 22:24:08;;;;;;;7.03;3.80;;;;;;;;;;12963721;22;20077;-85
2023/07/02 22:29:11;;;;;;;6.95;3.63;;;;;;;;;;12968066;22;20040;-85
2023/07/02 22:34:38;;;;;;;8.00;4.50;;;;;;;;;;12974379;22;20070;-80
2023/07/02 22:40:08;;;;;;;;;;;;;;;;;;;;;
2023/07/02 22:45:26;;;;;;;8.15;3.72;;;;;;;;;;12971829;22;20023;-82
2023/07/02 22:51:22;;;;;;;6.90;3.58;;;;;;;;;;13003875;22;20049;-82
2023/07/02 22:57:07;;;;;;;6.85;3.55;;;;;;;;;;12689056;22;20550;-83
2023/07/02 23:02:24;;;;;;;8.68;3.50;;;;;;;;;;13013359;22;20023;-83
2023/07/02 23:08:14;;;;;;;;;;;;;;;;;;;;;
2023/07/02 23:13:50;;;;;;;7.70;3.67;;;;;;;;;;13029543;22;20053;-83
2023/07/02 23:19:32;;;;;;;10.73;4.32;;;;;;;;;;12952690;22;20345;-83
2023/07/02 23:24:38;;;;;;;8.18;3.88;;;;;;;;;;13037725;22;20023;-83
2023/07/02 23:29:51;;;;;;;5.55;3.75;;;;;;;;;;13024838;22;20026;-83
2023/07/02 23:35:17;;;;;;;8.25;4.43;;;;;;;;;;13044386;22;20103;-83
2023/07/02 23:40:24;;;;;;;9.70;3.88;;;;;;;;;;12984220;22;20073;-82
2023/07/02 23:45:49;;;;;;;9.82;4.45;;;;;;;;;;13042506;22;20019;-83
2023/07/02 23:51:05;;;;;;;8.80;3.75;;;;;;;;;;13014713;22;20050;-83
2023/07/02 23:56:13;;;;;;;8.10;4.15;;;;;;;;;;13035166;22;20094;-83
